createdAt,value
2019-05-15T00:01:08.490Z,1024.21
2019-05-15T00:02:10.607Z,1024.18
2019-05-15T00:04:09.481Z,1024.18
2019-05-15T00:05:09.484Z,1024.15
2019-05-15T00:07:11.638Z,1024.16
2019-05-15T00:08:11.573Z,1024.15
2019-05-15T00:10:13.595Z,1024.11
2019-05-15T00:11:13.624Z,1024.16
2019-05-15T00:13:15.669Z,1024.13
2019-05-15T00:14:18.113Z,1024.18
2019-05-15T00:16:18.147Z,1024.15
2019-05-15T00:17:19.170Z,1024.09
2019-05-15T00:19:19.974Z,1024.08
2019-05-15T00:20:20.300Z,1024.06
2019-05-15T00:22:22.105Z,1024.06
2019-05-15T00:23:22.130Z,1024.06
2019-05-15T00:25:24.177Z,1024.07
2019-05-15T00:26:24.201Z,1024.06
2019-05-15T00:28:27.985Z,1024.05
2019-05-15T00:29:28.737Z,1024.05
2019-05-15T00:31:18.735Z,1024.04
2019-05-15T00:32:18.667Z,1024.02
2019-05-15T00:34:20.446Z,1024.03
2019-05-15T00:35:20.470Z,1024.07
2019-05-15T00:37:22.618Z,1024.03
2019-05-15T00:38:22.642Z,1024.02
2019-05-15T00:40:24.859Z,1024.00
2019-05-15T00:41:24.888Z,1024.01
2019-05-15T00:43:29.147Z,1023.97
2019-05-15T00:44:28.103Z,1023.98
2019-05-15T00:46:30.057Z,1024.00
2019-05-15T00:47:30.080Z,1023.98
2019-05-15T00:49:32.181Z,1023.99
2019-05-15T00:50:32.175Z,1023.98
2019-05-15T00:52:34.249Z,1023.97
2019-05-15T00:53:34.274Z,1023.95
2019-05-15T00:55:38.021Z,1023.98
2019-05-15T00:56:36.403Z,1023.99
2019-05-15T00:58:28.591Z,1023.99
2019-05-15T00:59:29.935Z,1023.96
2019-05-15T01:01:21.568Z,1023.96
2019-05-15T01:02:21.590Z,1023.99
2019-05-15T01:04:23.639Z,1023.96
2019-05-15T01:05:23.662Z,1023.94
2019-05-15T01:07:28.081Z,1023.88
2019-05-15T01:08:25.768Z,1023.96
2019-05-15T01:10:28.663Z,1023.92
2019-05-15T01:11:28.473Z,1023.92
2019-05-15T01:13:30.148Z,1023.90
2019-05-15T01:14:30.173Z,1023.88
2019-05-15T01:16:32.421Z,1023.85
2019-05-15T01:17:32.446Z,1023.86
2019-05-15T01:19:34.590Z,1023.86
2019-05-15T01:20:34.614Z,1023.83
2019-05-15T01:22:39.044Z,1023.76
2019-05-15T01:23:38.817Z,1023.74
2019-05-15T01:25:39.285Z,1023.77
2019-05-15T01:26:38.784Z,1023.75
2019-05-15T01:28:31.921Z,1023.76
2019-05-15T01:29:43.802Z,1023.76
2019-05-15T01:31:24.065Z,1023.73
2019-05-15T01:32:24.085Z,1023.74
2019-05-15T01:34:26.206Z,1023.71
2019-05-15T01:35:28.570Z,1023.67
2019-05-15T01:37:28.405Z,1023.71
2019-05-15T01:38:28.424Z,1023.68
2019-05-15T01:40:30.494Z,1023.68
2019-05-15T01:41:30.518Z,1023.66
2019-05-15T01:43:32.679Z,1023.66
2019-05-15T01:44:32.744Z,1023.67
2019-05-15T01:46:34.787Z,1023.63
2019-05-15T01:47:34.809Z,1023.64
2019-05-15T01:49:38.389Z,1023.68
2019-05-15T01:50:38.866Z,1023.64
2019-05-15T01:52:30.231Z,1023.62
2019-05-15T01:53:30.220Z,1023.64
2019-05-15T01:55:32.319Z,1023.60
2019-05-15T01:56:32.337Z,1023.63
2019-05-15T01:58:25.473Z,1023.59
2019-05-15T01:59:25.489Z,1023.55
2019-05-15T02:01:19.328Z,1023.52
2019-05-15T02:02:18.841Z,1023.55
2019-05-15T02:04:12.009Z,1023.49
2019-05-15T02:05:12.022Z,1023.50
2019-05-15T02:07:05.261Z,1023.46
2019-05-15T02:08:05.280Z,1023.44
2019-05-15T02:09:58.538Z,1023.46
2019-05-15T02:10:58.976Z,1023.47
2019-05-15T02:12:51.469Z,1023.50
2019-05-15T02:13:51.491Z,1023.50
2019-05-15T02:15:55.529Z,1023.44
2019-05-15T02:16:55.556Z,1023.47
2019-05-15T02:18:48.966Z,1023.48
2019-05-15T02:19:48.719Z,1023.46
2019-05-15T02:21:42.116Z,1023.43
2019-05-15T02:22:42.705Z,1023.47
2019-05-15T02:24:34.084Z,1023.40
2019-05-15T02:25:34.106Z,1023.43
2019-05-15T02:26:34.134Z,1023.37
2019-05-15T02:27:34.163Z,1023.42
2019-05-15T02:28:34.186Z,1023.38
2019-05-15T02:29:34.215Z,1023.32
2019-05-15T02:30:34.551Z,1023.36
2019-05-15T02:31:34.270Z,1023.35
2019-05-15T02:32:34.297Z,1023.35
2019-05-15T02:33:34.327Z,1023.28
2019-05-15T02:34:34.354Z,1023.34
2019-05-15T02:35:34.381Z,1023.33
2019-05-15T02:36:34.417Z,1023.28
2019-05-15T02:37:34.435Z,1023.31
2019-05-15T02:38:34.493Z,1023.32
2019-05-15T02:39:34.486Z,1023.32
2019-05-15T02:40:34.518Z,1023.33
2019-05-15T02:41:34.555Z,1023.29
2019-05-15T02:42:34.572Z,1023.28
2019-05-15T02:43:34.601Z,1023.27
2019-05-15T02:44:34.644Z,1023.31
2019-05-15T02:45:37.740Z,1023.28
2019-05-15T02:46:34.680Z,1023.29
2019-05-15T02:47:34.711Z,1023.29
2019-05-15T02:48:34.737Z,1023.26
2019-05-15T02:49:34.763Z,1023.31
2019-05-15T02:50:34.790Z,1023.31
2019-05-15T02:51:34.823Z,1023.28
2019-05-15T02:52:34.846Z,1023.30
2019-05-15T02:53:34.872Z,1023.28
2019-05-15T02:54:34.899Z,1023.30
2019-05-15T02:55:34.927Z,1023.31
2019-05-15T02:56:34.954Z,1023.29
2019-05-15T02:57:34.980Z,1023.25
2019-05-15T02:58:35.008Z,1023.31
2019-05-15T02:59:35.044Z,1023.29
2019-05-15T03:00:43.939Z,1023.31
2019-05-15T03:01:35.091Z,1023.30
2019-05-15T03:02:35.118Z,1023.32
2019-05-15T03:03:35.146Z,1023.30
2019-05-15T03:04:35.172Z,1023.34
2019-05-15T03:05:35.234Z,1023.32
2019-05-15T03:06:35.226Z,1023.32
2019-05-15T03:07:35.254Z,1023.31
2019-05-15T03:08:35.281Z,1023.28
2019-05-15T03:09:35.315Z,1023.27
2019-05-15T03:10:35.334Z,1023.29
2019-05-15T03:11:35.361Z,1023.29
2019-05-15T03:12:35.391Z,1023.27
2019-05-15T03:13:35.417Z,1023.25
2019-05-15T03:14:35.444Z,1023.25
2019-05-15T03:15:35.472Z,1023.23
2019-05-15T03:16:35.498Z,1023.26
2019-05-15T03:17:35.529Z,1023.27
2019-05-15T03:18:35.556Z,1023.26
2019-05-15T03:19:39.000Z,1023.27
2019-05-15T03:20:38.628Z,1023.27
2019-05-15T03:21:38.660Z,1023.31
2019-05-15T03:22:35.687Z,1023.30
2019-05-15T03:23:35.689Z,1023.31
2019-05-15T03:24:35.714Z,1023.26
2019-05-15T03:25:35.744Z,1023.22
2019-05-15T03:26:39.188Z,1023.25
2019-05-15T03:27:39.169Z,1023.21
2019-05-15T03:28:38.765Z,1023.24
2019-05-15T03:29:35.851Z,1023.23
2019-05-15T03:31:06.486Z,1023.25
2019-05-15T03:31:56.671Z,1023.22
2019-05-15T03:33:38.777Z,1023.20
2019-05-15T03:34:44.583Z,1023.28
2019-05-15T03:35:41.943Z,1023.28
2019-05-15T03:36:36.041Z,1023.24
2019-05-15T03:37:39.503Z,1023.24
2019-05-15T03:38:39.117Z,1023.25
2019-05-15T03:39:39.054Z,1023.25
2019-05-15T03:40:39.370Z,1023.26
2019-05-15T03:41:39.070Z,1023.22
2019-05-15T03:42:39.133Z,1023.25
2019-05-15T03:43:39.244Z,1023.25
2019-05-15T03:44:39.079Z,1023.28
2019-05-15T03:45:39.992Z,1023.34
2019-05-15T03:46:39.589Z,1023.27
2019-05-15T03:47:39.705Z,1023.27
2019-05-15T03:48:39.784Z,1023.28
2019-05-15T03:49:39.457Z,1023.31
2019-05-15T03:50:39.688Z,1023.27
2019-05-15T03:51:40.082Z,1023.31
2019-05-15T03:52:39.425Z,1023.32
2019-05-15T03:53:39.574Z,1023.27
2019-05-15T03:54:39.154Z,1023.26
2019-05-15T03:55:40.018Z,1023.27
2019-05-15T03:56:39.316Z,1023.29
2019-05-15T03:57:40.080Z,1023.24
2019-05-15T03:58:39.742Z,1023.24
2019-05-15T03:59:39.688Z,1023.26
2019-05-15T04:00:39.447Z,1023.25
2019-05-15T04:01:41.217Z,1023.25
2019-05-15T04:02:39.526Z,1023.23
2019-05-15T04:03:38.954Z,1023.28
2019-05-15T04:04:38.842Z,1023.27
2019-05-15T04:05:38.872Z,1023.22
2019-05-15T04:06:39.117Z,1023.28
2019-05-15T04:07:39.387Z,1023.24
2019-05-15T04:08:39.210Z,1023.25
2019-05-15T04:09:38.672Z,1023.27
2019-05-15T04:10:40.021Z,1023.23
2019-05-15T04:11:38.785Z,1023.27
2019-05-15T04:12:40.510Z,1023.27
2019-05-15T04:13:39.617Z,1023.27
2019-05-15T04:14:39.512Z,1023.24
2019-05-15T04:15:39.483Z,1023.23
2019-05-15T04:16:39.123Z,1023.22
2019-05-15T04:17:40.130Z,1023.22
2019-05-15T04:18:39.651Z,1023.24
2019-05-15T04:19:39.156Z,1023.26
2019-05-15T04:20:40.393Z,1023.19
2019-05-15T04:21:41.515Z,1023.17
2019-05-15T04:22:40.028Z,1023.19
2019-05-15T04:23:39.137Z,1023.20
2019-05-15T04:24:39.420Z,1023.23
2019-05-15T04:25:39.169Z,1023.24
2019-05-15T04:26:39.385Z,1023.23
2019-05-15T04:27:39.131Z,1023.22
2019-05-15T04:28:41.259Z,1023.22
2019-05-15T04:29:39.710Z,1023.22
2019-05-15T04:30:39.181Z,1023.22
2019-05-15T04:31:51.756Z,1023.23
2019-05-15T04:32:39.883Z,1023.24
2019-05-15T04:33:39.988Z,1023.25
2019-05-15T04:34:39.678Z,1023.24
2019-05-15T04:35:40.247Z,1023.23
2019-05-15T04:36:39.628Z,1023.23
2019-05-15T04:37:40.852Z,1023.21
2019-05-15T04:38:39.261Z,1023.17
2019-05-15T04:39:40.069Z,1023.16
2019-05-15T04:40:39.614Z,1023.17
2019-05-15T04:41:39.231Z,1023.18
2019-05-15T04:42:39.891Z,1023.16
2019-05-15T04:43:41.341Z,1023.19
2019-05-15T04:44:39.522Z,1023.16
2019-05-15T04:45:39.173Z,1023.16
2019-05-15T04:46:39.189Z,1023.15
2019-05-15T04:47:39.623Z,1023.16
2019-05-15T04:48:39.887Z,1023.16
2019-05-15T04:49:39.393Z,1023.19
2019-05-15T04:50:40.017Z,1023.17
2019-05-15T04:51:39.100Z,1023.17
2019-05-15T04:52:39.399Z,1023.20
2019-05-15T04:53:39.435Z,1023.18
2019-05-15T04:54:40.263Z,1023.18
2019-05-15T04:55:40.294Z,1023.17
2019-05-15T04:56:39.956Z,1023.15
2019-05-15T04:57:40.182Z,1023.15
2019-05-15T04:58:39.500Z,1023.14
2019-05-15T04:59:38.998Z,1023.15
2019-05-15T05:00:39.991Z,1023.14
2019-05-15T05:01:40.268Z,1023.14
2019-05-15T05:02:40.153Z,1023.18
2019-05-15T05:03:39.291Z,1023.12
2019-05-15T05:04:38.903Z,1023.13
2019-05-15T05:05:38.891Z,1023.11
2019-05-15T05:06:38.918Z,1023.11
2019-05-15T05:07:39.170Z,1023.13
2019-05-15T05:08:39.821Z,1023.17
2019-05-15T05:09:39.065Z,1023.15
2019-05-15T05:10:39.554Z,1023.16
2019-05-15T05:11:38.629Z,1023.12
2019-05-15T05:12:41.789Z,1023.18
2019-05-15T05:13:39.355Z,1023.15
2019-05-15T05:14:39.234Z,1023.18
2019-05-15T05:15:39.056Z,1023.17
2019-05-15T05:16:39.494Z,1023.17
2019-05-15T05:17:39.387Z,1023.15
2019-05-15T05:18:40.975Z,1023.17
2019-05-15T05:19:40.118Z,1023.19
2019-05-15T05:20:38.876Z,1023.15
2019-05-15T05:21:38.912Z,1023.15
2019-05-15T05:22:39.525Z,1023.14
2019-05-15T05:23:38.960Z,1023.17
2019-05-15T05:24:38.991Z,1023.16
2019-05-15T05:25:39.015Z,1023.16
2019-05-15T05:26:39.045Z,1023.19
2019-05-15T05:27:39.071Z,1023.19
2019-05-15T05:28:39.097Z,1023.14
2019-05-15T05:29:39.129Z,1023.15
2019-05-15T05:30:39.155Z,1023.12
2019-05-15T05:31:39.378Z,1023.15
2019-05-15T05:32:39.377Z,1023.14
2019-05-15T05:33:39.237Z,1023.10
2019-05-15T05:34:39.340Z,1023.11
2019-05-15T05:35:39.294Z,1023.12
2019-05-15T05:36:39.329Z,1023.07
2019-05-15T05:37:39.353Z,1023.07
2019-05-15T05:38:39.379Z,1023.06
2019-05-15T05:39:39.642Z,1023.08
2019-05-15T05:40:39.433Z,1023.10
2019-05-15T05:41:39.461Z,1023.07
2019-05-15T05:42:39.489Z,1023.08
2019-05-15T05:43:39.525Z,1023.11
2019-05-15T05:44:42.667Z,1023.10
2019-05-15T05:45:39.574Z,1023.11
2019-05-15T05:46:39.933Z,1023.07
2019-05-15T05:47:39.625Z,1023.11
2019-05-15T05:48:39.655Z,1023.15
2019-05-15T05:49:39.684Z,1023.12
2019-05-15T05:50:49.140Z,1023.14
2019-05-15T05:52:41.727Z,1023.12
2019-05-15T05:53:41.751Z,1023.13
2019-05-15T05:55:43.900Z,1023.12
2019-05-15T05:56:43.924Z,1023.16
2019-05-15T05:58:46.076Z,1023.18
2019-05-15T05:59:46.097Z,1023.18
2019-05-15T06:01:43.653Z,1023.10
2019-05-15T06:02:46.890Z,1023.06
2019-05-15T06:04:40.280Z,1023.08
2019-05-15T06:05:40.302Z,1023.04
2019-05-15T06:07:42.462Z,1023.04
2019-05-15T06:08:42.491Z,1023.03
2019-05-15T06:10:44.617Z,1023.04
2019-05-15T06:11:44.640Z,1023.00
2019-05-15T06:13:50.070Z,1023.05
2019-05-15T06:14:48.495Z,1023.02
2019-05-15T06:16:48.956Z,1023.04
2019-05-15T06:17:48.976Z,1023.03
2019-05-15T06:19:51.127Z,1023.09
2019-05-15T06:20:51.158Z,1023.02
2019-05-15T06:22:53.440Z,1023.11
2019-05-15T06:23:55.922Z,1023.11
2019-05-15T06:25:45.335Z,1023.12
2019-05-15T06:26:45.361Z,1023.05
2019-05-15T06:28:39.415Z,1023.10
2019-05-15T06:29:37.933Z,1023.09
2019-05-15T06:31:29.619Z,1023.10
2019-05-15T06:32:29.634Z,1023.11
2019-05-15T06:34:31.988Z,1023.10
2019-05-15T06:35:31.989Z,1023.09
2019-05-15T06:37:23.923Z,1023.04
2019-05-15T06:38:23.940Z,1023.08
2019-05-15T06:40:28.732Z,1023.03
2019-05-15T06:41:28.473Z,1023.02
2019-05-15T06:43:19.131Z,1023.01
2019-05-15T06:44:18.757Z,1022.99
2019-05-15T06:46:10.162Z,1022.99
2019-05-15T06:47:10.187Z,1022.99
2019-05-15T06:49:12.831Z,1022.93
2019-05-15T06:50:12.841Z,1022.96
2019-05-15T06:51:12.872Z,1022.92
2019-05-15T06:52:12.893Z,1022.90
2019-05-15T06:53:12.926Z,1022.92
2019-05-15T06:54:12.954Z,1022.92
2019-05-15T06:55:12.988Z,1022.89
2019-05-15T06:56:13.015Z,1022.91
2019-05-15T06:57:13.030Z,1022.94
2019-05-15T06:58:13.070Z,1022.91
2019-05-15T06:59:13.095Z,1022.91
2019-05-15T07:00:13.145Z,1022.91
2019-05-15T07:01:13.163Z,1022.84
2019-05-15T07:02:13.184Z,1022.85
2019-05-15T07:03:21.610Z,1022.89
2019-05-15T07:04:13.241Z,1022.84
2019-05-15T07:05:13.286Z,1022.86
2019-05-15T07:06:13.307Z,1022.81
2019-05-15T07:07:13.338Z,1022.80
2019-05-15T07:08:13.370Z,1022.73
2019-05-15T07:09:13.398Z,1022.76
2019-05-15T07:10:13.425Z,1022.74
2019-05-15T07:11:13.458Z,1022.72
2019-05-15T07:12:13.489Z,1022.76
2019-05-15T07:13:13.521Z,1022.71
2019-05-15T07:14:13.546Z,1022.65
2019-05-15T07:15:13.578Z,1022.66
2019-05-15T07:16:13.611Z,1022.66
2019-05-15T07:17:13.634Z,1022.67
2019-05-15T07:18:13.655Z,1022.65
2019-05-15T07:19:13.691Z,1022.67
2019-05-15T07:20:13.728Z,1022.66
2019-05-15T07:21:13.750Z,1022.62
2019-05-15T07:22:13.779Z,1022.58
2019-05-15T07:23:13.810Z,1022.57
2019-05-15T07:24:13.841Z,1022.60
2019-05-15T07:25:13.880Z,1022.57
2019-05-15T07:26:13.910Z,1022.60
2019-05-15T07:27:13.945Z,1022.61
2019-05-15T07:28:13.970Z,1022.54
2019-05-15T07:29:13.997Z,1022.56
2019-05-15T07:30:14.032Z,1022.62
2019-05-15T07:31:14.065Z,1022.56
2019-05-15T07:32:14.091Z,1022.51
2019-05-15T07:33:14.115Z,1022.48
2019-05-15T07:34:14.155Z,1022.54
2019-05-15T07:35:14.171Z,1022.50
2019-05-15T07:36:14.214Z,1022.51
2019-05-15T07:37:14.259Z,1022.48
2019-05-15T07:38:14.279Z,1022.48
2019-05-15T07:39:14.302Z,1022.49
2019-05-15T07:40:14.328Z,1022.50
2019-05-15T07:41:14.354Z,1022.46
2019-05-15T07:42:14.399Z,1022.55
2019-05-15T07:43:14.419Z,1022.59
2019-05-15T07:44:14.469Z,1022.52
2019-05-15T07:45:14.482Z,1022.49
2019-05-15T07:46:14.521Z,1022.56
2019-05-15T07:47:14.555Z,1022.52
2019-05-15T07:48:14.571Z,1022.49
2019-05-15T07:49:14.615Z,1022.52
2019-05-15T07:50:14.640Z,1022.56
2019-05-15T07:51:14.677Z,1022.48
2019-05-15T07:52:14.705Z,1022.53
2019-05-15T07:53:14.741Z,1022.53
2019-05-15T07:54:14.765Z,1022.51
2019-05-15T07:55:14.797Z,1022.56
2019-05-15T07:56:14.826Z,1022.59
2019-05-15T07:57:14.886Z,1022.58
2019-05-15T07:58:14.887Z,1022.61
2019-05-15T07:59:14.921Z,1022.69
2019-05-15T08:00:14.953Z,1022.63
2019-05-15T08:01:14.989Z,1022.69
2019-05-15T08:02:15.017Z,1022.69
2019-05-15T08:03:15.050Z,1022.62
2019-05-15T08:04:26.154Z,1022.70
2019-05-15T08:05:15.110Z,1022.66
2019-05-15T08:06:15.129Z,1022.66
2019-05-15T08:07:15.177Z,1022.66
2019-05-15T08:08:15.207Z,1022.66
2019-05-15T08:09:15.276Z,1022.64
2019-05-15T08:10:15.366Z,1022.71
2019-05-15T08:11:20.863Z,1022.72
2019-05-15T08:12:15.402Z,1022.68
2019-05-15T08:13:15.400Z,1022.68
2019-05-15T08:14:15.443Z,1022.70
2019-05-15T08:15:15.449Z,1022.62
2019-05-15T08:16:17.957Z,1022.62
2019-05-15T08:17:19.037Z,1022.64
2019-05-15T08:18:17.835Z,1022.65
2019-05-15T08:19:18.177Z,1022.57
2019-05-15T08:20:15.588Z,1022.62
2019-05-15T08:21:15.606Z,1022.58
2019-05-15T08:22:18.177Z,1022.59
2019-05-15T08:23:15.670Z,1022.61
2019-05-15T08:24:15.719Z,1022.59
2019-05-15T08:25:30.161Z,1022.59
2019-05-15T08:26:17.660Z,1022.60
2019-05-15T08:27:15.796Z,1022.57
2019-05-15T08:28:15.835Z,1022.63
2019-05-15T08:29:19.311Z,1022.63
2019-05-15T08:30:18.206Z,1022.60
2019-05-15T08:31:18.128Z,1022.62
2019-05-15T08:32:15.982Z,1022.62
2019-05-15T08:33:17.845Z,1022.53
2019-05-15T08:34:16.371Z,1022.62
2019-05-15T08:35:18.911Z,1022.57
2019-05-15T08:36:18.180Z,1022.60
2019-05-15T08:37:18.187Z,1022.58
2019-05-15T08:38:18.252Z,1022.55
2019-05-15T08:39:16.196Z,1022.54
2019-05-15T08:40:17.839Z,1022.52
2019-05-15T08:41:18.363Z,1022.52
2019-05-15T08:42:18.677Z,1022.55
2019-05-15T08:43:18.387Z,1022.51
2019-05-15T08:44:18.551Z,1022.45
2019-05-15T08:45:18.687Z,1022.48
2019-05-15T08:46:18.573Z,1022.45
2019-05-15T08:47:19.198Z,1022.43
2019-05-15T08:48:18.441Z,1022.41
2019-05-15T08:49:16.514Z,1022.44
2019-05-15T08:50:18.306Z,1022.42
2019-05-15T08:51:19.078Z,1022.39
2019-05-15T08:52:18.736Z,1022.36
2019-05-15T08:53:18.980Z,1022.40
2019-05-15T08:54:18.363Z,1022.31
2019-05-15T08:55:16.722Z,1022.37
2019-05-15T08:56:19.169Z,1022.37
2019-05-15T08:57:20.236Z,1022.34
2019-05-15T08:58:20.301Z,1022.41
2019-05-15T08:59:18.770Z,1022.31
2019-05-15T09:00:18.576Z,1022.38
2019-05-15T09:01:18.063Z,1022.33
2019-05-15T09:02:18.599Z,1022.34
2019-05-15T09:03:18.306Z,1022.36
2019-05-15T09:04:27.825Z,1022.28
2019-05-15T09:05:18.715Z,1022.34
2019-05-15T09:06:20.664Z,1022.30
2019-05-15T09:07:18.056Z,1022.29
2019-05-15T09:08:19.203Z,1022.23
2019-05-15T09:09:18.252Z,1022.28
2019-05-15T09:10:18.352Z,1022.27
2019-05-15T09:11:19.238Z,1022.25
2019-05-15T09:12:18.880Z,1022.25
2019-05-15T09:13:18.836Z,1022.24
2019-05-15T09:14:18.488Z,1022.25
2019-05-15T09:15:18.434Z,1022.23
2019-05-15T09:16:18.545Z,1022.23
2019-05-15T09:17:18.137Z,1022.23
2019-05-15T09:18:20.147Z,1022.24
2019-05-15T09:19:18.442Z,1022.24
2019-05-15T09:20:19.468Z,1022.20
2019-05-15T09:21:19.189Z,1022.21
2019-05-15T09:22:18.751Z,1022.19
2019-05-15T09:23:19.467Z,1022.19
2019-05-15T09:24:19.856Z,1022.19
2019-05-15T09:25:19.401Z,1022.11
2019-05-15T09:26:19.412Z,1022.11
2019-05-15T09:27:18.452Z,1022.19
2019-05-15T09:28:18.964Z,1022.09
2019-05-15T09:29:18.373Z,1022.07
2019-05-15T09:30:18.403Z,1022.07
2019-05-15T09:31:19.260Z,1022.06
2019-05-15T09:32:19.139Z,1022.00
2019-05-15T09:33:20.161Z,1022.02
2019-05-15T09:34:18.678Z,1022.03
2019-05-15T09:35:18.702Z,1022.01
2019-05-15T09:36:20.167Z,1022.02
2019-05-15T09:37:18.192Z,1022.00
2019-05-15T09:38:18.659Z,1021.97
2019-05-15T09:39:18.452Z,1021.97
2019-05-15T09:40:18.713Z,1021.96
2019-05-15T09:41:18.262Z,1021.92
2019-05-15T09:42:18.310Z,1021.90
2019-05-15T09:43:18.475Z,1021.96
2019-05-15T09:44:21.614Z,1021.92
2019-05-15T09:45:18.403Z,1021.86
2019-05-15T09:46:18.696Z,1021.87
2019-05-15T09:47:18.973Z,1021.85
2019-05-15T09:48:19.593Z,1021.84
2019-05-15T09:49:18.536Z,1021.82
2019-05-15T09:50:19.277Z,1021.76
2019-05-15T09:51:18.625Z,1021.79
2019-05-15T09:52:22.487Z,1021.79
2019-05-15T09:53:19.227Z,1021.80
2019-05-15T09:54:19.361Z,1021.78
2019-05-15T09:55:18.742Z,1021.78
2019-05-15T09:56:18.908Z,1021.75
2019-05-15T09:57:18.991Z,1021.74
2019-05-15T09:58:20.435Z,1021.72
2019-05-15T09:59:18.942Z,1021.71
2019-05-15T10:00:19.130Z,1021.72
2019-05-15T10:01:19.753Z,1021.64
2019-05-15T10:02:19.244Z,1021.65
2019-05-15T10:03:19.181Z,1021.63
2019-05-15T10:04:19.264Z,1021.61
2019-05-15T10:05:19.092Z,1021.59
2019-05-15T10:06:20.595Z,1021.59
2019-05-15T10:07:19.410Z,1021.58
2019-05-15T10:08:21.266Z,1021.65
2019-05-15T10:09:19.230Z,1021.58
2019-05-15T10:10:19.377Z,1021.57
2019-05-15T10:11:19.908Z,1021.57
2019-05-15T10:12:19.339Z,1021.56
2019-05-15T10:13:19.378Z,1021.57
2019-05-15T10:14:19.686Z,1021.55
2019-05-15T10:15:19.450Z,1021.57
2019-05-15T10:16:19.970Z,1021.56
2019-05-15T10:17:19.515Z,1021.54
2019-05-15T10:18:19.558Z,1021.56
2019-05-15T10:19:19.590Z,1021.57
2019-05-15T10:20:19.622Z,1021.59
2019-05-15T10:21:19.670Z,1021.57
2019-05-15T10:22:19.690Z,1021.56
2019-05-15T10:23:20.077Z,1021.55
2019-05-15T10:24:19.772Z,1021.54
2019-05-15T10:25:19.796Z,1021.52
2019-05-15T10:26:19.831Z,1021.54
2019-05-15T10:27:19.865Z,1021.53
2019-05-15T10:28:19.898Z,1021.52
2019-05-15T10:29:19.931Z,1021.46
2019-05-15T10:30:19.968Z,1021.46
2019-05-15T10:31:20.012Z,1021.44
2019-05-15T10:32:20.041Z,1021.41
2019-05-15T10:33:20.597Z,1021.36
2019-05-15T10:34:20.122Z,1021.37
2019-05-15T10:35:27.748Z,1021.39
2019-05-15T10:36:20.186Z,1021.39
2019-05-15T10:37:20.210Z,1021.41
2019-05-15T10:38:20.252Z,1021.38
2019-05-15T10:39:20.295Z,1021.36
2019-05-15T10:40:20.659Z,1021.31
2019-05-15T10:41:20.361Z,1021.33
2019-05-15T10:42:20.403Z,1021.31
2019-05-15T10:43:21.076Z,1021.29
2019-05-15T10:44:20.468Z,1021.33
2019-05-15T10:45:20.506Z,1021.32
2019-05-15T10:46:20.536Z,1021.29
2019-05-15T10:47:20.573Z,1021.29
2019-05-15T10:48:20.604Z,1021.25
2019-05-15T10:49:20.646Z,1021.21
2019-05-15T10:50:20.682Z,1021.20
2019-05-15T10:51:20.714Z,1021.25
2019-05-15T10:52:20.756Z,1021.15
2019-05-15T10:53:20.831Z,1021.17
2019-05-15T10:54:20.828Z,1021.17
2019-05-15T10:55:20.860Z,1021.12
2019-05-15T10:56:20.894Z,1021.14
2019-05-15T10:57:20.921Z,1021.09
2019-05-15T10:58:21.918Z,1021.08
2019-05-15T10:59:20.995Z,1021.13
2019-05-15T11:00:21.043Z,1021.09
2019-05-15T11:01:21.069Z,1021.14
2019-05-15T11:02:21.104Z,1021.11
2019-05-15T11:03:21.136Z,1021.05
2019-05-15T11:04:21.173Z,1021.05
2019-05-15T11:05:21.207Z,1021.03
2019-05-15T11:06:21.242Z,1021.06
2019-05-15T11:07:21.349Z,1020.96
2019-05-15T11:08:21.367Z,1021.01
2019-05-15T11:09:21.357Z,1020.99
2019-05-15T11:10:21.394Z,1020.98
2019-05-15T11:11:21.451Z,1021.00
2019-05-15T11:12:21.489Z,1020.99
2019-05-15T11:13:21.546Z,1021.00
2019-05-15T11:14:21.522Z,1020.97
2019-05-15T11:15:21.551Z,1020.93
2019-05-15T11:16:21.591Z,1020.97
2019-05-15T11:17:21.621Z,1020.96
2019-05-15T11:18:21.659Z,1020.93
2019-05-15T11:19:21.701Z,1020.90
2019-05-15T11:20:21.735Z,1020.87
2019-05-15T11:21:21.766Z,1020.85
2019-05-15T11:22:21.812Z,1020.77
2019-05-15T11:23:21.836Z,1020.79
2019-05-15T11:24:21.873Z,1020.82
2019-05-15T11:25:21.935Z,1020.79
2019-05-15T11:26:22.210Z,1020.79
2019-05-15T11:27:21.978Z,1020.82
2019-05-15T11:28:22.016Z,1020.81
2019-05-15T11:29:22.059Z,1020.82
2019-05-15T11:30:22.082Z,1020.83
2019-05-15T11:31:24.771Z,1020.81
2019-05-15T11:32:22.152Z,1020.83
2019-05-15T11:33:22.197Z,1020.82
2019-05-15T11:34:22.220Z,1020.81
2019-05-15T11:35:22.259Z,1020.80
2019-05-15T11:36:22.302Z,1020.83
2019-05-15T11:37:22.330Z,1020.86
2019-05-15T11:38:22.363Z,1020.81
2019-05-15T11:39:22.388Z,1020.81
2019-05-15T11:40:22.424Z,1020.81
2019-05-15T11:41:22.471Z,1020.84
2019-05-15T11:42:22.505Z,1020.78
2019-05-15T11:43:22.574Z,1020.74
2019-05-15T11:44:22.563Z,1020.69
2019-05-15T11:45:22.609Z,1020.75
2019-05-15T11:46:25.669Z,1020.76
2019-05-15T11:47:22.693Z,1020.72
2019-05-15T11:48:22.718Z,1020.69
2019-05-15T11:49:22.776Z,1020.67
2019-05-15T11:50:22.781Z,1020.68
2019-05-15T11:51:22.808Z,1020.62
2019-05-15T11:52:22.858Z,1020.61
2019-05-15T11:53:22.888Z,1020.57
2019-05-15T11:54:22.923Z,1020.57
2019-05-15T11:55:22.951Z,1020.57
2019-05-15T11:56:22.999Z,1020.57
2019-05-15T11:57:37.326Z,1020.62
2019-05-15T11:58:23.062Z,1020.57
2019-05-15T11:59:23.097Z,1020.53
2019-05-15T12:00:27.051Z,1020.53
2019-05-15T12:01:23.187Z,1020.52
2019-05-15T12:02:23.198Z,1020.55
2019-05-15T12:03:24.993Z,1020.56
2019-05-15T12:04:30.136Z,1020.59
2019-05-15T12:05:23.301Z,1020.57
2019-05-15T12:06:23.340Z,1020.51
2019-05-15T12:07:23.369Z,1020.60
2019-05-15T12:08:23.409Z,1020.55
2019-05-15T12:09:23.452Z,1020.48
2019-05-15T12:10:23.484Z,1020.52
2019-05-15T12:11:33.420Z,1020.47
2019-05-15T12:12:23.549Z,1020.47
2019-05-15T12:13:23.584Z,1020.49
2019-05-15T12:14:23.616Z,1020.42
2019-05-15T12:15:23.668Z,1020.44
2019-05-15T12:16:23.689Z,1020.46
2019-05-15T12:17:23.718Z,1020.42
2019-05-15T12:18:23.755Z,1020.41
2019-05-15T12:19:23.795Z,1020.37
2019-05-15T12:20:23.822Z,1020.38
2019-05-15T12:21:23.864Z,1020.35
2019-05-15T12:22:23.887Z,1020.44
2019-05-15T12:23:23.931Z,1020.41
2019-05-15T12:24:31.606Z,1020.41
2019-05-15T12:25:28.414Z,1020.46
2019-05-15T12:26:24.039Z,1020.39
2019-05-15T12:27:24.073Z,1020.39
2019-05-15T12:28:24.108Z,1020.33
2019-05-15T12:29:24.142Z,1020.33
2019-05-15T12:30:24.173Z,1020.34
2019-05-15T12:31:24.803Z,1020.38
2019-05-15T12:32:33.081Z,1020.35
2019-05-15T12:33:24.282Z,1020.36
2019-05-15T12:34:24.315Z,1020.33
2019-05-15T12:35:24.372Z,1020.32
2019-05-15T12:37:24.425Z,1020.35
2019-05-15T12:38:24.478Z,1020.32
2019-05-15T12:39:25.997Z,1020.37
2019-05-15T12:39:27.156Z,1020.28
2019-05-15T12:59:40.751Z,1020.24
2019-05-15T13:00:25.242Z,1020.20
2019-05-15T13:01:25.273Z,1020.21
2019-05-15T13:02:25.297Z,1020.27
2019-05-15T13:03:25.335Z,1020.28
2019-05-15T13:04:25.370Z,1020.31
2019-05-15T13:05:25.407Z,1020.26
2019-05-15T13:06:28.317Z,1020.21
2019-05-15T13:07:25.470Z,1020.16
2019-05-15T13:08:25.506Z,1020.23
2019-05-15T13:09:27.600Z,1020.22
2019-05-15T13:10:25.574Z,1020.12
2019-05-15T13:11:25.614Z,1020.17
2019-05-15T13:12:25.644Z,1020.15
2019-05-15T13:13:25.693Z,1020.12
2019-05-15T13:14:28.197Z,1020.18
2019-05-15T13:15:28.045Z,1020.11
2019-05-15T13:16:28.015Z,1020.11
2019-05-15T13:17:25.820Z,1020.13
2019-05-15T13:18:25.865Z,1020.14
2019-05-15T13:19:28.349Z,1020.11
2019-05-15T13:20:25.926Z,1020.11
2019-05-15T13:21:25.960Z,1020.08
2019-05-15T13:22:28.020Z,1020.07
2019-05-15T13:23:28.305Z,1020.06
2019-05-15T13:24:28.333Z,1020.09
2019-05-15T13:25:27.999Z,1020.00
2019-05-15T13:26:27.095Z,1020.06
2019-05-15T13:27:26.172Z,1020.06
2019-05-15T13:28:28.776Z,1020.10
2019-05-15T13:29:28.747Z,1020.07
2019-05-15T13:30:26.269Z,1020.12
2019-05-15T13:31:28.386Z,1020.17
2019-05-15T13:32:28.558Z,1020.13
2019-05-15T13:33:26.375Z,1020.10